sensor_id;sensor_type;location;lat;lon;timestamp;pressure;altitude;pressure_sealevel;temperature;humidity
70217;BME280;65567;55.684;37.570;2023-04-30T00:01:20;99517.00;;;9.91;48.43
70217;BME280;65567;55.684;37.570;2023-04-30T00:03:46;99518.25;;;9.82;48.76
70217;BME280;65567;55.684;37.570;2023-04-30T00:06:12;99516.69;;;9.78;48.69
70217;BME280;65567;55.684;37.570;2023-04-30T00:08:38;99519.16;;;9.81;48.64
70217;BME280;65567;55.684;37.570;2023-04-30T00:11:04;99520.22;;;9.77;48.75
70217;BME280;65567;55.684;37.570;2023-04-30T00:13:30;99520.38;;;9.72;49.03
70217;BME280;65567;55.684;37.570;2023-04-30T00:15:56;99516.94;;;9.72;49.48
70217;BME280;65567;55.684;37.570;2023-04-30T00:18:22;99521.50;;;9.87;48.91
70217;BME280;65567;55.684;37.570;2023-04-30T00:20:48;99524.06;;;9.89;48.87
70217;BME280;65567;55.684;37.570;2023-04-30T00:23:16;99522.81;;;9.77;49.56
70217;BME280;65567;55.684;37.570;2023-04-30T00:25:42;99523.31;;;9.65;49.59
70217;BME280;65567;55.684;37.570;2023-04-30T00:28:08;99528.69;;;9.62;49.39
70217;BME280;65567;55.684;37.570;2023-04-30T00:30:33;99528.56;;;9.65;49.59
70217;BME280;65567;55.684;37.570;2023-04-30T00:32:59;99530.50;;;9.59;49.66
70217;BME280;65567;55.684;37.570;2023-04-30T00:35:26;99538.66;;;9.53;50.16
70217;BME280;65567;55.684;37.570;2023-04-30T00:37:52;99543.16;;;9.50;50.05
70217;BME280;65567;55.684;37.570;2023-04-30T00:40:19;99545.03;;;9.46;50.28
70217;BME280;65567;55.684;37.570;2023-04-30T00:42:45;99542.59;;;9.41;50.44
70217;BME280;65567;55.684;37.570;2023-04-30T00:45:13;99548.75;;;9.40;50.58
70217;BME280;65567;55.684;37.570;2023-04-30T00:47:39;99545.28;;;9.40;50.43
70217;BME280;65567;55.684;37.570;2023-04-30T00:50:06;99539.34;;;9.36;50.76
70217;BME280;65567;55.684;37.570;2023-04-30T00:52:32;99536.75;;;9.35;50.94
70217;BME280;65567;55.684;37.570;2023-04-30T00:54:58;99540.41;;;9.31;50.68
70217;BME280;65567;55.684;37.570;2023-04-30T00:57:24;99544.75;;;9.32;50.47
70217;BME280;65567;55.684;37.570;2023-04-30T00:59:51;99545.66;;;9.31;50.69
70217;BME280;65567;55.684;37.570;2023-04-30T01:02:18;99543.03;;;9.31;50.90
70217;BME280;65567;55.684;37.570;2023-04-30T01:04:45;99545.78;;;9.28;51.59
70217;BME280;65567;55.684;37.570;2023-04-30T01:07:11;99539.75;;;9.25;51.56
70217;BME280;65567;55.684;37.570;2023-04-30T01:09:37;99542.25;;;9.29;51.18
70217;BME280;65567;55.684;37.570;2023-04-30T01:12:20;99549.97;;;9.32;51.41
70217;BME280;65567;55.684;37.570;2023-04-30T01:15:14;99542.97;;;9.32;51.92
70217;BME280;65567;55.684;37.570;2023-04-30T01:17:53;99547.53;;;9.27;51.80
70217;BME280;65567;55.684;37.570;2023-04-30T01:20:21;99553.50;;;9.31;51.75
70217;BME280;65567;55.684;37.570;2023-04-30T01:28:14;99554.28;;;9.33;51.65
70217;BME280;65567;55.684;37.570;2023-04-30T01:30:42;99547.72;;;9.22;51.82
70217;BME280;65567;55.684;37.570;2023-04-30T01:33:12;99556.41;;;9.23;51.61
70217;BME280;65567;55.684;37.570;2023-04-30T01:44:07;99545.72;;;9.07;52.63
70217;BME280;65567;55.684;37.570;2023-04-30T01:46:37;99548.34;;;9.07;52.47
70217;BME280;65567;55.684;37.570;2023-04-30T01:51:59;99556.91;;;9.11;52.46
70217;BME280;65567;55.684;37.570;2023-04-30T01:54:57;99551.69;;;9.11;52.85
70217;BME280;65567;55.684;37.570;2023-04-30T01:57:33;99543.78;;;9.12;52.91
70217;BME280;65567;55.684;37.570;2023-04-30T02:00:02;99548.03;;;9.15;52.54
70217;BME280;65567;55.684;37.570;2023-04-30T02:02:29;99555.69;;;9.19;52.53
70217;BME280;65567;55.684;37.570;2023-04-30T02:04:55;99548.63;;;9.21;52.50
70217;BME280;65567;55.684;37.570;2023-04-30T02:07:38;99544.75;;;9.32;51.99
70217;BME280;65567;55.684;37.570;2023-04-30T02:10:05;99552.72;;;9.49;52.04
70217;BME280;65567;55.684;37.570;2023-04-30T02:12:31;99533.34;;;9.75;51.74
70217;BME280;65567;55.684;37.570;2023-04-30T02:14:57;99532.88;;;10.07;51.01
70217;BME280;65567;55.684;37.570;2023-04-30T02:17:23;99516.31;;;10.46;50.44
70217;BME280;65567;55.684;37.570;2023-04-30T02:19:49;99526.94;;;10.81;50.01
70217;BME280;65567;55.684;37.570;2023-04-30T02:22:15;99523.63;;;11.14;49.31
70217;BME280;65567;55.684;37.570;2023-04-30T02:24:41;99515.97;;;11.46;48.61
70217;BME280;65567;55.684;37.570;2023-04-30T02:27:07;99508.69;;;11.86;47.82
70217;BME280;65567;55.684;37.570;2023-04-30T02:29:33;99513.91;;;12.21;47.09
70217;BME280;65567;55.684;37.570;2023-04-30T02:31:59;99513.00;;;12.54;46.41
70217;BME280;65567;55.684;37.570;2023-04-30T02:34:25;99505.28;;;12.83;45.15
70217;BME280;65567;55.684;37.570;2023-04-30T02:36:51;99504.88;;;13.07;44.27
70217;BME280;65567;55.684;37.570;2023-04-30T02:39:17;99501.56;;;13.34;43.84
70217;BME280;65567;55.684;37.570;2023-04-30T02:41:43;99499.25;;;13.60;43.01
70217;BME280;65567;55.684;37.570;2023-04-30T02:44:10;99496.06;;;13.83;42.92
70217;BME280;65567;55.684;37.570;2023-04-30T02:46:36;99488.75;;;14.03;42.14
70217;BME280;65567;55.684;37.570;2023-04-30T02:49:02;99483.13;;;14.24;41.82
70217;BME280;65567;55.684;37.570;2023-04-30T02:51:28;99486.94;;;14.47;41.22
70217;BME280;65567;55.684;37.570;2023-04-30T02:53:54;99479.13;;;14.74;40.63
70217;BME280;65567;55.684;37.570;2023-04-30T02:56:20;99483.56;;;15.01;40.05
70217;BME280;65567;55.684;37.570;2023-04-30T02:58:46;99480.25;;;15.25;39.35
70217;BME280;65567;55.684;37.570;2023-04-30T03:01:12;99482.00;;;15.51;38.90
70217;BME280;65567;55.684;37.570;2023-04-30T03:03:38;99480.94;;;15.80;38.34
70217;BME280;65567;55.684;37.570;2023-04-30T03:06:04;99482.56;;;16.08;37.97
70217;BME280;65567;55.684;37.570;2023-04-30T03:08:30;99481.78;;;16.32;37.50
70217;BME280;65567;55.684;37.570;2023-04-30T03:10:56;99482.25;;;16.63;36.88
70217;BME280;65567;55.684;37.570;2023-04-30T03:13:22;99482.50;;;16.84;36.60
70217;BME280;65567;55.684;37.570;2023-04-30T03:16:01;99485.91;;;17.10;35.88
70217;BME280;65567;55.684;37.570;2023-04-30T03:18:29;99480.59;;;17.34;35.56
70217;BME280;65567;55.684;37.570;2023-04-30T03:20:55;99468.50;;;17.66;35.38
70217;BME280;65567;55.684;37.570;2023-04-30T03:23:22;99479.97;;;17.89;35.14
70217;BME280;65567;55.684;37.570;2023-04-30T03:25:48;99475.19;;;18.40;34.22
70217;BME280;65567;55.684;37.570;2023-04-30T03:28:14;99476.06;;;19.07;33.15
70217;BME280;65567;55.684;37.570;2023-04-30T03:30:41;99466.13;;;19.62;32.57
70217;BME280;65567;55.684;37.570;2023-04-30T03:33:10;99469.28;;;19.77;31.51
70217;BME280;65567;55.684;37.570;2023-04-30T03:35:36;99459.09;;;19.40;32.12
70217;BME280;65567;55.684;37.570;2023-04-30T03:38:02;99454.88;;;19.17;32.33
70217;BME280;65567;55.684;37.570;2023-04-30T03:40:28;99451.22;;;18.96;32.80
70217;BME280;65567;55.684;37.570;2023-04-30T03:42:54;99456.69;;;18.95;32.70
70217;BME280;65567;55.684;37.570;2023-04-30T03:45:20;99452.88;;;18.54;32.83
70217;BME280;65567;55.684;37.570;2023-04-30T03:47:46;99450.75;;;18.13;33.39
70217;BME280;65567;55.684;37.570;2023-04-30T03:50:13;99458.34;;;17.95;33.92
70217;BME280;65567;55.684;37.570;2023-04-30T03:52:39;99451.84;;;17.99;33.88
70217;BME280;65567;55.684;37.570;2023-04-30T03:55:05;99447.19;;;17.79;33.69
70217;BME280;65567;55.684;37.570;2023-04-30T03:57:32;99442.81;;;17.44;34.16
70217;BME280;65567;55.684;37.570;2023-04-30T03:59:58;99441.94;;;17.32;34.64
70217;BME280;65567;55.684;37.570;2023-04-30T04:02:24;99442.03;;;17.89;34.16
70217;BME280;65567;55.684;37.570;2023-04-30T04:04:50;99450.88;;;18.00;33.89
70217;BME280;65567;55.684;37.570;2023-04-30T04:07:16;99445.56;;;18.00;34.38
70217;BME280;65567;55.684;37.570;2023-04-30T04:09:42;99441.31;;;18.43;33.92
70217;BME280;65567;55.684;37.570;2023-04-30T04:12:08;99446.13;;;19.05;33.23
70217;BME280;65567;55.684;37.570;2023-04-30T04:14:34;99441.41;;;19.51;32.60
70217;BME280;65567;55.684;37.570;2023-04-30T04:17:00;99434.41;;;19.92;31.82
70217;BME280;65567;55.684;37.570;2023-04-30T04:19:27;99429.50;;;19.87;31.70
70217;BME280;65567;55.684;37.570;2023-04-30T04:21:53;99434.22;;;19.84;31.34
70217;BME280;65567;55.684;37.570;2023-04-30T04:24:18;99426.88;;;19.97;31.40
70217;BME280;65567;55.684;37.570;2023-04-30T04:26:44;99430.19;;;19.89;31.10
70217;BME280;65567;55.684;37.570;2023-04-30T04:29:11;99440.44;;;19.30;31.75
70217;BME280;65567;55.684;37.570;2023-04-30T04:31:37;99432.69;;;18.07;33.48
70217;BME280;65567;55.684;37.570;2023-04-30T04:34:03;99442.28;;;16.92;35.15
70217;BME280;65567;55.684;37.570;2023-04-30T04:36:30;99428.78;;;15.83;36.98
70217;BME280;65567;55.684;37.570;2023-04-30T04:38:59;99437.34;;;15.08;38.30
70217;BME280;65567;55.684;37.570;2023-04-30T04:41:32;99438.25;;;15.22;38.58
70217;BME280;65567;55.684;37.570;2023-04-30T04:44:01;99430.44;;;15.59;38.26
70217;BME280;65567;55.684;37.570;2023-04-30T04:46:31;99434.03;;;15.45;38.64
70217;BME280;65567;55.684;37.570;2023-04-30T04:48:57;99429.81;;;15.55;38.32
70217;BME280;65567;55.684;37.570;2023-04-30T04:51:23;99431.75;;;15.66;37.94
70217;BME280;65567;55.684;37.570;2023-04-30T04:53:49;99438.06;;;15.76;38.47
70217;BME280;65567;55.684;37.570;2023-04-30T04:56:15;99442.66;;;16.37;37.09
70217;BME280;65567;55.684;37.570;2023-04-30T04:58:42;99441.69;;;16.01;37.15
70217;BME280;65567;55.684;37.570;2023-04-30T05:01:09;99433.44;;;15.93;37.36
70217;BME280;65567;55.684;37.570;2023-04-30T05:03:35;99435.09;;;15.55;37.87
70217;BME280;65567;55.684;37.570;2023-04-30T05:06:04;99436.94;;;15.14;38.95
70217;BME280;65567;55.684;37.570;2023-04-30T05:08:30;99435.91;;;15.30;38.79
70217;BME280;65567;55.684;37.570;2023-04-30T05:10:56;99430.56;;;15.44;38.55
70217;BME280;65567;55.684;37.570;2023-04-30T05:13:25;99433.59;;;15.38;38.17
70217;BME280;65567;55.684;37.570;2023-04-30T05:15:51;99430.06;;;15.12;38.34
70217;BME280;65567;55.684;37.570;2023-04-30T05:18:18;99428.50;;;14.82;38.42
70217;BME280;65567;55.684;37.570;2023-04-30T05:20:44;99426.19;;;14.63;38.48
70217;BME280;65567;55.684;37.570;2023-04-30T05:23:10;99422.13;;;14.99;38.15
70217;BME280;65567;55.684;37.570;2023-04-30T05:25:37;99430.72;;;14.75;37.94
70217;BME280;65567;55.684;37.570;2023-04-30T05:28:03;99429.34;;;14.82;38.07
70217;BME280;65567;55.684;37.570;2023-04-30T05:30:29;99425.91;;;14.95;38.08
70217;BME280;65567;55.684;37.570;2023-04-30T05:32:56;99428.94;;;15.29;38.00
70217;BME280;65567;55.684;37.570;2023-04-30T05:35:22;99424.34;;;15.97;36.52
70217;BME280;65567;55.684;37.570;2023-04-30T05:37:48;99426.25;;;15.95;36.26
70217;BME280;65567;55.684;37.570;2023-04-30T05:40:14;99425.47;;;15.67;36.54
70217;BME280;65567;55.684;37.570;2023-04-30T05:42:41;99421.88;;;15.42;37.33
70217;BME280;65567;55.684;37.570;2023-04-30T05:45:09;99416.94;;;15.50;37.41
70217;BME280;65567;55.684;37.570;2023-04-30T05:47:36;99419.22;;;15.29;37.69
70217;BME280;65567;55.684;37.570;2023-04-30T05:50:06;99416.88;;;15.12;37.70
70217;BME280;65567;55.684;37.570;2023-04-30T05:52:32;99415.75;;;14.89;38.40
70217;BME280;65567;55.684;37.570;2023-04-30T05:55:01;99422.25;;;14.70;39.01
70217;BME280;65567;55.684;37.570;2023-04-30T05:57:27;99425.53;;;15.01;38.05
70217;BME280;65567;55.684;37.570;2023-04-30T05:59:53;99428.31;;;15.38;37.50
70217;BME280;65567;55.684;37.570;2023-04-30T06:02:19;99430.34;;;15.60;37.19
70217;BME280;65567;55.684;37.570;2023-04-30T06:04:46;99422.16;;;15.91;36.64
70217;BME280;65567;55.684;37.570;2023-04-30T06:07:12;99438.38;;;16.10;36.51
70217;BME280;65567;55.684;37.570;2023-04-30T06:09:38;99438.41;;;16.47;35.98
70217;BME280;65567;55.684;37.570;2023-04-30T06:12:04;99441.00;;;16.36;35.38
70217;BME280;65567;55.684;37.570;2023-04-30T06:14:30;99438.84;;;16.41;34.81
70217;BME280;65567;55.684;37.570;2023-04-30T06:16:56;99440.88;;;16.62;34.56
70217;BME280;65567;55.684;37.570;2023-04-30T06:19:22;99445.88;;;16.16;34.77
70217;BME280;65567;55.684;37.570;2023-04-30T06:21:48;99441.56;;;15.90;35.27
70217;BME280;65567;55.684;37.570;2023-04-30T06:24:14;99442.47;;;15.50;36.04
70217;BME280;65567;55.684;37.570;2023-04-30T06:26:39;99441.13;;;15.44;36.33
70217;BME280;65567;55.684;37.570;2023-04-30T06:29:05;99441.53;;;15.64;35.33
70217;BME280;65567;55.684;37.570;2023-04-30T06:31:31;99442.31;;;15.92;35.19
70217;BME280;65567;55.684;37.570;2023-04-30T06:33:57;99436.06;;;15.93;35.05
70217;BME280;65567;55.684;37.570;2023-04-30T06:36:23;99429.66;;;15.84;34.90
70217;BME280;65567;55.684;37.570;2023-04-30T06:38:49;99441.66;;;15.49;35.51
70217;BME280;65567;55.684;37.570;2023-04-30T06:41:17;99422.31;;;15.62;34.99
70217;BME280;65567;55.684;37.570;2023-04-30T06:43:43;99425.16;;;15.46;34.80
70217;BME280;65567;55.684;37.570;2023-04-30T06:46:09;99424.75;;;15.78;34.31
70217;BME280;65567;55.684;37.570;2023-04-30T06:48:35;99425.22;;;15.18;34.58
70217;BME280;65567;55.684;37.570;2023-04-30T06:51:01;99424.06;;;15.23;34.71
70217;BME280;65567;55.684;37.570;2023-04-30T06:53:27;99417.41;;;15.17;34.50
70217;BME280;65567;55.684;37.570;2023-04-30T06:55:53;99409.88;;;14.98;34.63
70217;BME280;65567;55.684;37.570;2023-04-30T06:58:20;99409.63;;;15.15;35.17
70217;BME280;65567;55.684;37.570;2023-04-30T07:00:46;99414.06;;;15.28;33.66
70217;BME280;65567;55.684;37.570;2023-04-30T07:03:12;99401.06;;;15.25;33.37
70217;BME280;65567;55.684;37.570;2023-04-30T07:05:38;99401.44;;;15.06;34.19
70217;BME280;65567;55.684;37.570;2023-04-30T07:08:05;99390.84;;;15.33;33.48
70217;BME280;65567;55.684;37.570;2023-04-30T07:10:31;99389.91;;;15.47;32.70
70217;BME280;65567;55.684;37.570;2023-04-30T07:12:57;99392.84;;;15.68;32.17
70217;BME280;65567;55.684;37.570;2023-04-30T07:15:24;99390.59;;;14.97;33.20
70217;BME280;65567;55.684;37.570;2023-04-30T07:17:49;99394.09;;;14.29;33.41
70217;BME280;65567;55.684;37.570;2023-04-30T07:20:16;99390.84;;;14.38;34.22
70217;BME280;65567;55.684;37.570;2023-04-30T07:22:42;99386.44;;;14.80;33.20
70217;BME280;65567;55.684;37.570;2023-04-30T07:25:11;99385.53;;;14.94;32.50
70217;BME280;65567;55.684;37.570;2023-04-30T07:27:39;99370.75;;;14.92;32.09
70217;BME280;65567;55.684;37.570;2023-04-30T07:30:07;99374.28;;;14.78;32.58
70217;BME280;65567;55.684;37.570;2023-04-30T07:32:36;99365.75;;;14.87;32.34
70217;BME280;65567;55.684;37.570;2023-04-30T07:35:03;99362.63;;;14.40;32.65
70217;BME280;65567;55.684;37.570;2023-04-30T07:37:29;99360.03;;;14.26;33.41
70217;BME280;65567;55.684;37.570;2023-04-30T07:39:55;99352.34;;;14.08;33.97
70217;BME280;65567;55.684;37.570;2023-04-30T07:42:21;99342.59;;;13.96;33.27
70217;BME280;65567;55.684;37.570;2023-04-30T07:44:47;99338.25;;;14.36;32.96
70217;BME280;65567;55.684;37.570;2023-04-30T07:47:13;99338.25;;;14.09;33.04
70217;BME280;65567;55.684;37.570;2023-04-30T07:49:39;99330.53;;;14.06;33.15
70217;BME280;65567;55.684;37.570;2023-04-30T07:52:05;99314.63;;;14.08;33.24
70217;BME280;65567;55.684;37.570;2023-04-30T07:54:35;99310.97;;;14.10;33.32
70217;BME280;65567;55.684;37.570;2023-04-30T07:57:03;99307.72;;;14.19;32.80
70217;BME280;65567;55.684;37.570;2023-04-30T07:59:30;99304.28;;;13.77;33.46
70217;BME280;65567;55.684;37.570;2023-04-30T08:01:56;99296.53;;;13.74;33.31
70217;BME280;65567;55.684;37.570;2023-04-30T08:04:22;99298.44;;;13.72;34.12
70217;BME280;65567;55.684;37.570;2023-04-30T08:06:51;99286.88;;;14.16;34.10
70217;BME280;65567;55.684;37.570;2023-04-30T08:09:17;99285.50;;;14.24;33.29
70217;BME280;65567;55.684;37.570;2023-04-30T08:11:43;99271.69;;;14.20;33.80
70217;BME280;65567;55.684;37.570;2023-04-30T08:14:09;99274.50;;;13.90;33.72
70217;BME280;65567;55.684;37.570;2023-04-30T08:16:35;99265.56;;;13.36;35.42
70217;BME280;65567;55.684;37.570;2023-04-30T08:19:01;99248.75;;;13.24;35.80
70217;BME280;65567;55.684;37.570;2023-04-30T08:21:28;99251.94;;;13.58;35.97
70217;BME280;65567;55.684;37.570;2023-04-30T08:23:55;99244.00;;;14.00;35.44
70217;BME280;65567;55.684;37.570;2023-04-30T08:26:21;99237.94;;;14.52;34.72
70217;BME280;65567;55.684;37.570;2023-04-30T08:28:48;99254.16;;;14.86;34.40
70217;BME280;65567;55.684;37.570;2023-04-30T08:31:14;99239.56;;;14.68;34.20
70217;BME280;65567;55.684;37.570;2023-04-30T08:33:39;99230.19;;;14.64;34.26
70217;BME280;65567;55.684;37.570;2023-04-30T08:36:05;99226.75;;;14.36;34.72
70217;BME280;65567;55.684;37.570;2023-04-30T08:38:31;99235.03;;;14.30;34.11
70217;BME280;65567;55.684;37.570;2023-04-30T08:41:13;99230.75;;;14.01;34.10
70217;BME280;65567;55.684;37.570;2023-04-30T08:43:41;99221.94;;;13.61;34.98
70217;BME280;65567;55.684;37.570;2023-04-30T08:46:10;99222.06;;;13.45;35.05
70217;BME280;65567;55.684;37.570;2023-04-30T08:48:38;99211.13;;;13.51;34.79
70217;BME280;65567;55.684;37.570;2023-04-30T08:51:05;99211.13;;;13.51;35.38
70217;BME280;65567;55.684;37.570;2023-04-30T08:53:35;99209.44;;;13.64;35.20
70217;BME280;65567;55.684;37.570;2023-04-30T08:56:03;99203.25;;;13.78;34.71
70217;BME280;65567;55.684;37.570;2023-04-30T08:58:29;99199.84;;;13.91;34.79
70217;BME280;65567;55.684;37.570;2023-04-30T09:00:57;99190.59;;;13.98;34.20
70217;BME280;65567;55.684;37.570;2023-04-30T09:03:24;99188.94;;;13.82;34.20
70217;BME280;65567;55.684;37.570;2023-04-30T09:05:52;99183.19;;;13.63;34.48
70217;BME280;65567;55.684;37.570;2023-04-30T09:08:18;99180.47;;;13.64;34.61
70217;BME280;65567;55.684;37.570;2023-04-30T09:11:19;99174.75;;;13.58;34.83
70217;BME280;65567;55.684;37.570;2023-04-30T09:13:46;99173.25;;;13.53;34.58
70217;BME280;65567;55.684;37.570;2023-04-30T09:16:12;99181.63;;;13.46;34.88
70217;BME280;65567;55.684;37.570;2023-04-30T09:18:38;99168.78;;;13.41;35.42
70217;BME280;65567;55.684;37.570;2023-04-30T09:21:05;99160.66;;;13.59;35.32
70217;BME280;65567;55.684;37.570;2023-04-30T09:23:33;99150.31;;;13.55;35.45
70217;BME280;65567;55.684;37.570;2023-04-30T09:25:59;99153.69;;;13.58;35.44
70217;BME280;65567;55.684;37.570;2023-04-30T09:28:27;99146.94;;;13.53;35.47
70217;BME280;65567;55.684;37.570;2023-04-30T09:30:56;99149.22;;;13.45;35.71
70217;BME280;65567;55.684;37.570;2023-04-30T09:33:22;99146.38;;;13.48;36.17
70217;BME280;65567;55.684;37.570;2023-04-30T09:35:48;99137.16;;;13.83;36.08
70217;BME280;65567;55.684;37.570;2023-04-30T09:38:28;99126.66;;;13.96;35.12
70217;BME280;65567;55.684;37.570;2023-04-30T09:40:57;99125.63;;;13.71;35.30
70217;BME280;65567;55.684;37.570;2023-04-30T09:43:24;99125.22;;;13.50;35.04
70217;BME280;65567;55.684;37.570;2023-04-30T09:45:51;99123.06;;;13.57;34.85
70217;BME280;65567;55.684;37.570;2023-04-30T09:48:29;99122.38;;;13.40;34.96
70217;BME280;65567;55.684;37.570;2023-04-30T09:50:56;99120.00;;;13.63;34.63
70217;BME280;65567;55.684;37.570;2023-04-30T09:53:22;99108.94;;;13.58;34.50
70217;BME280;65567;55.684;37.570;2023-04-30T09:55:49;99112.03;;;13.64;34.31
70217;BME280;65567;55.684;37.570;2023-04-30T09:58:17;99107.34;;;13.42;34.73
70217;BME280;65567;55.684;37.570;2023-04-30T10:00:49;99109.31;;;13.38;34.77
70217;BME280;65567;55.684;37.570;2023-04-30T10:03:17;99110.38;;;13.21;35.38
70217;BME280;65567;55.684;37.570;2023-04-30T10:05:47;99110.09;;;13.12;35.54
70217;BME280;65567;55.684;37.570;2023-04-30T10:08:35;99112.88;;;13.23;35.31
70217;BME280;65567;55.684;37.570;2023-04-30T10:11:06;99115.22;;;13.42;35.10
70217;BME280;65567;55.684;37.570;2023-04-30T10:18:51;99110.78;;;13.70;34.93
70217;BME280;65567;55.684;37.570;2023-04-30T10:21:17;99106.84;;;14.03;34.51
70217;BME280;65567;55.684;37.570;2023-04-30T10:23:45;99114.25;;;14.36;33.87
70217;BME280;65567;55.684;37.570;2023-04-30T10:26:13;99117.53;;;14.40;33.96
70217;BME280;65567;55.684;37.570;2023-04-30T10:28:41;99121.72;;;14.17;34.01
70217;BME280;65567;55.684;37.570;2023-04-30T10:31:07;99117.56;;;13.87;34.27
70217;BME280;65567;55.684;37.570;2023-04-30T10:36:44;99108.50;;;13.91;34.59
70217;BME280;65567;55.684;37.570;2023-04-30T10:39:17;99106.38;;;13.83;34.45
70217;BME280;65567;55.684;37.570;2023-04-30T10:41:46;99112.59;;;13.82;34.50
70217;BME280;65567;55.684;37.570;2023-04-30T10:44:20;99107.28;;;13.97;34.17
70217;BME280;65567;55.684;37.570;2023-04-30T10:46:46;99113.19;;;14.13;34.12
70217;BME280;65567;55.684;37.570;2023-04-30T10:49:12;99110.88;;;14.09;33.83
70217;BME280;65567;55.684;37.570;2023-04-30T10:51:46;99109.75;;;14.38;33.51
70217;BME280;65567;55.684;37.570;2023-04-30T10:54:14;99115.53;;;14.44;33.40
70217;BME280;65567;55.684;37.570;2023-04-30T10:56:44;99119.22;;;14.67;33.01
70217;BME280;65567;55.684;37.570;2023-04-30T10:59:10;99122.06;;;14.38;33.33
70217;BME280;65567;55.684;37.570;2023-04-30T11:01:57;99117.56;;;14.66;33.15
70217;BME280;65567;55.684;37.570;2023-04-30T11:04:26;99109.81;;;14.63;32.63
70217;BME280;65567;55.684;37.570;2023-04-30T11:09:20;99109.72;;;14.26;33.54
70217;BME280;65567;55.684;37.570;2023-04-30T11:12:10;99115.63;;;14.55;33.05
70217;BME280;65567;55.684;37.570;2023-04-30T11:14:43;99112.44;;;13.98;33.69
70217;BME280;65567;55.684;37.570;2023-04-30T11:17:21;99099.25;;;13.85;34.53
70217;BME280;65567;55.684;37.570;2023-04-30T11:19:49;99086.81;;;13.87;34.22
70217;BME280;65567;55.684;37.570;2023-04-30T11:22:16;99073.34;;;14.05;33.91
70217;BME280;65567;55.684;37.570;2023-04-30T11:27:26;99062.00;;;14.04;33.49
70217;BME280;65567;55.684;37.570;2023-04-30T11:29:53;99054.66;;;13.82;33.99
70217;BME280;65567;55.684;37.570;2023-04-30T11:32:21;99061.53;;;13.98;34.10
70217;BME280;65567;55.684;37.570;2023-04-30T11:34:47;99051.75;;;14.00;33.96
70217;BME280;65567;55.684;37.570;2023-04-30T11:37:27;99043.53;;;13.92;34.30
70217;BME280;65567;55.684;37.570;2023-04-30T11:39:56;99035.84;;;14.01;33.90
70217;BME280;65567;55.684;37.570;2023-04-30T11:42:22;99040.28;;;14.27;33.73
70217;BME280;65567;55.684;37.570;2023-04-30T11:44:48;99036.38;;;14.32;33.85
70217;BME280;65567;55.684;37.570;2023-04-30T11:47:14;99023.81;;;14.62;33.54
70217;BME280;65567;55.684;37.570;2023-04-30T11:49:41;99027.59;;;14.70;33.45
70217;BME280;65567;55.684;37.570;2023-04-30T11:52:07;99019.22;;;14.27;34.05
70217;BME280;65567;55.684;37.570;2023-04-30T11:54:37;99012.34;;;14.37;34.20
70217;BME280;65567;55.684;37.570;2023-04-30T11:57:04;99020.84;;;14.53;33.63
70217;BME280;65567;55.684;37.570;2023-04-30T11:59:33;99010.28;;;14.53;33.77
70217;BME280;65567;55.684;37.570;2023-04-30T12:02:05;99008.81;;;14.75;33.79
70217;BME280;65567;55.684;37.570;2023-04-30T12:04:32;99008.38;;;14.81;33.75
70217;BME280;65567;55.684;37.570;2023-04-30T12:06:59;99007.31;;;14.84;33.56
70217;BME280;65567;55.684;37.570;2023-04-30T12:09:26;99001.97;;;14.97;33.74
70217;BME280;65567;55.684;37.570;2023-04-30T12:11:54;99000.38;;;14.70;33.53
70217;BME280;65567;55.684;37.570;2023-04-30T12:14:23;99002.47;;;15.02;33.16
70217;BME280;65567;55.684;37.570;2023-04-30T12:16:51;98993.22;;;14.96;33.15
70217;BME280;65567;55.684;37.570;2023-04-30T12:19:21;98998.22;;;14.88;32.62
70217;BME280;65567;55.684;37.570;2023-04-30T12:21:49;98997.53;;;14.73;33.04
70217;BME280;65567;55.684;37.570;2023-04-30T12:24:17;98997.41;;;14.75;32.78
70217;BME280;65567;55.684;37.570;2023-04-30T12:26:44;98997.00;;;14.55;33.07
70217;BME280;65567;55.684;37.570;2023-04-30T12:29:14;99006.34;;;14.35;33.43
70217;BME280;65567;55.684;37.570;2023-04-30T12:31:41;99012.88;;;14.29;33.66
70217;BME280;65567;55.684;37.570;2023-04-30T12:34:09;99013.50;;;14.33;33.72
70217;BME280;65567;55.684;37.570;2023-04-30T12:36:38;99017.91;;;14.45;33.40
70217;BME280;65567;55.684;37.570;2023-04-30T12:39:12;99015.34;;;14.69;33.02
70217;BME280;65567;55.684;37.570;2023-04-30T12:41:47;99006.88;;;14.77;33.21
70217;BME280;65567;55.684;37.570;2023-04-30T12:44:24;99013.75;;;14.80;33.06
70217;BME280;65567;55.684;37.570;2023-04-30T12:46:52;99011.44;;;14.75;33.58
70217;BME280;65567;55.684;37.570;2023-04-30T12:49:32;99009.25;;;14.56;33.51
70217;BME280;65567;55.684;37.570;2023-04-30T12:52:03;99023.72;;;14.25;34.14
70217;BME280;65567;55.684;37.570;2023-04-30T12:54:32;99014.38;;;14.20;34.43
70217;BME280;65567;55.684;37.570;2023-04-30T12:57:04;99012.03;;;14.29;34.65
70217;BME280;65567;55.684;37.570;2023-04-30T12:59:35;99017.16;;;14.43;34.58
70217;BME280;65567;55.684;37.570;2023-04-30T13:02:23;99004.41;;;14.50;34.22
70217;BME280;65567;55.684;37.570;2023-04-30T13:04:49;99004.75;;;13.94;35.08
70217;BME280;65567;55.684;37.570;2023-04-30T13:07:18;98998.88;;;13.77;35.40
70217;BME280;65567;55.684;37.570;2023-04-30T13:09:46;98989.06;;;13.92;35.55
70217;BME280;65567;55.684;37.570;2023-04-30T13:12:12;98995.41;;;13.90;35.58
70217;BME280;65567;55.684;37.570;2023-04-30T13:14:38;98988.25;;;13.92;35.50
70217;BME280;65567;55.684;37.570;2023-04-30T13:17:04;98983.59;;;13.82;35.59
70217;BME280;65567;55.684;37.570;2023-04-30T13:19:32;98988.44;;;14.01;35.39
70217;BME280;65567;55.684;37.570;2023-04-30T13:21:59;98982.53;;;14.11;35.27
70217;BME280;65567;55.684;37.570;2023-04-30T13:24:25;98984.63;;;14.18;35.21
70217;BME280;65567;55.684;37.570;2023-04-30T13:26:51;98982.22;;;14.15;34.90